Time;durP1;ratioP1;P1;durP2;ratioP2;P2;SDS_P1;SDS_P2;PMS_P1;PMS_P2;Temp;Humidity;BMP_temperature;BMP_pressure;BME280_temperature;BME280_humidity;BME280_pressure;Samples;Min_cycle;Max_cycle;Signal;HPM_P1;HPM_P2
2022/01/25 00:08:54;;;;;;;81.15;35.83;;;;;;;1.91;100.00;103435.97;5044283;28;20114;-45
2022/01/25 00:25:10;;;;;;;77.38;33.15;;;;;;;1.95;100.00;103430.59;5057220;28;20093;-45
2022/01/25 00:28:03;;;;;;;72.72;35.30;;;;;;;1.92;100.00;103433.31;5057891;28;20305;-44
2022/01/25 00:30:42;;;;;;;76.85;34.60;;;;;;;1.92;100.00;103428.03;5058213;28;20042;-45
2022/01/25 00:33:08;;;;;;;80.68;34.45;;;;;;;1.88;100.00;103425.50;5057818;28;20077;-45
2022/01/25 00:35:33;;;;;;;81.45;35.60;;;;;;;1.90;100.00;103440.41;5057949;28;20038;-43
2022/01/25 00:37:58;;;;;;;73.80;33.75;;;;;;;1.92;100.00;103432.41;5056766;28;20024;-43
2022/01/25 00:40:24;;;;;;;75.15;33.97;;;;;;;1.93;100.00;103444.69;5041716;28;20032;-44
2022/01/25 00:42:49;;;;;;;77.68;34.58;;;;;;;1.93;100.00;103445.56;5050701;28;20024;-44
2022/01/25 00:45:15;;;;;;;80.38;36.38;;;;;;;1.94;100.00;103434.13;5058347;28;20119;-45
2022/01/25 00:47:46;;;;;;;80.57;36.17;;;;;;;1.92;100.00;103428.03;5058742;28;20171;-46
2022/01/25 00:50:14;;;;;;;76.90;35.42;;;;;;;1.93;100.00;103420.97;5058400;28;20120;-47
2022/01/25 00:55:08;;;;;;;66.60;31.95;;;;;;;1.88;100.00;103426.38;5056400;28;20116;-45
2022/01/25 00:57:33;;;;;;;73.85;34.15;;;;;;;1.90;100.00;103431.59;5056990;28;20654;-44
2022/01/25 00:59:59;;;;;;;78.47;34.75;;;;;;;1.90;100.00;103421.94;5057494;28;20028;-45
2022/01/25 01:02:24;;;;;;;71.35;33.30;;;;;;;1.89;100.00;103424.63;5057624;28;20417;-45
2022/01/25 01:04:50;;;;;;;73.65;33.50;;;;;;;1.88;100.00;103422.88;5058143;28;20361;-43
2022/01/25 01:07:16;;;;;;;75.25;33.95;;;;;;;1.91;100.00;103428.94;5056162;28;20047;-47
2022/01/25 01:09:46;;;;;;;75.90;33.92;;;;;;;1.93;100.00;103436.78;5039168;28;20401;-44
2022/01/25 01:12:22;;;;;;;71.65;34.10;;;;;;;1.92;100.00;103428.03;5057590;28;20175;-47
2022/01/25 01:14:58;;;;;;;69.85;31.70;;;;;;;1.91;100.00;103433.34;5057585;28;20036;-45
2022/01/25 01:31:14;;;;;;;74.72;32.25;;;;;;;2.01;100.00;103434.81;5032725;28;20463;-45
2022/01/25 01:34:09;;;;;;;72.05;32.67;;;;;;;2.01;100.00;103437.47;5057686;28;20208;-43
2022/01/25 01:42:17;;;;;;;71.15;32.72;;;;;;;2.02;100.00;103434.78;5056141;28;20129;-45
2022/01/25 01:47:48;;;;;;;70.35;31.55;;;;;;;2.06;100.00;103440.84;5032476;28;20074;-45
2022/01/25 01:50:25;;;;;;;74.28;32.83;;;;;;;2.05;100.00;103442.63;5056918;28;20120;-48
2022/01/25 01:52:51;;;;;;;76.97;31.70;;;;;;;2.08;100.00;103439.00;5056983;28;20491;-43
2022/01/25 01:55:17;;;;;;;76.13;34.25;;;;;;;2.08;100.00;103441.66;5055394;28;20088;-45
2022/01/25 01:57:42;;;;;;;74.55;33.85;;;;;;;2.09;100.00;103435.47;5057011;28;20040;-44
2022/01/25 02:00:08;;;;;;;76.32;34.95;;;;;;;2.08;100.00;103427.63;5057112;28;20024;-43
2022/01/25 02:02:33;;;;;;;74.63;34.72;;;;;;;2.08;100.00;103433.75;5055183;28;20258;-46
2022/01/25 02:04:59;;;;;;;77.32;35.53;;;;;;;2.07;100.00;103426.75;5057219;28;20123;-46
2022/01/25 02:07:24;;;;;;;79.07;36.40;;;;;;;2.06;100.00;103427.66;5055851;28;20499;-44
2022/01/25 02:09:49;;;;;;;85.22;37.30;;;;;;;2.05;100.00;103423.28;5055964;28;20070;-44
2022/01/25 02:12:14;;;;;;;81.85;35.92;;;;;;;2.07;100.00;103417.97;5055937;28;20035;-45
2022/01/25 02:14:41;;;;;;;75.05;34.85;;;;;;;2.07;100.00;103424.13;5056937;28;20039;-44
2022/01/25 02:17:25;;;;;;;72.88;34.47;;;;;;;2.09;100.00;103426.69;5056241;28;20028;-45
2022/01/25 02:22:56;;;;;;;77.90;34.03;;;;;;;2.12;100.00;103410.78;5055363;28;20399;-45
2022/01/25 02:25:23;;;;;;;70.38;33.17;;;;;;;2.11;100.00;103412.56;5054601;28;20025;-44
2022/01/25 02:27:48;;;;;;;74.63;33.92;;;;;;;2.10;100.00;103418.75;5056560;28;20020;-45
2022/01/25 02:30:14;;;;;;;73.47;33.50;;;;;;;2.09;100.00;103406.50;5056745;28;20067;-44
2022/01/25 02:32:39;;;;;;;75.47;33.88;;;;;;;2.10;100.00;103409.97;5056384;28;20074;-45
2022/01/25 02:35:06;;;;;;;75.47;33.97;;;;;;;2.10;100.00;103410.84;5056347;28;20031;-44
2022/01/25 02:37:31;;;;;;;80.35;34.40;;;;;;;2.11;100.00;103402.03;5035967;28;20063;-44
2022/01/25 02:39:57;;;;;;;71.57;34.00;;;;;;;2.12;100.00;103403.78;5053625;28;20143;-43
2022/01/25 02:42:23;;;;;;;78.43;35.35;;;;;;;2.14;100.00;103403.69;5055070;28;20032;-45
2022/01/25 02:44:49;;;;;;;74.10;33.08;;;;;;;2.14;100.00;103403.69;5056086;28;20054;-44
2022/01/25 02:49:59;;;;;;;70.85;33.42;;;;;;;2.13;100.00;103405.47;5055714;28;20558;-46
2022/01/25 02:52:25;;;;;;;76.22;34.05;;;;;;;2.14;100.00;103408.97;5054859;28;20078;-44
2022/01/25 02:54:51;;;;;;;75.07;33.70;;;;;;;2.12;100.00;103398.50;5036465;28;20134;-46
2022/01/25 02:57:17;;;;;;;72.13;33.78;;;;;;;2.13;100.00;103405.47;5054685;28;20175;-44
2022/01/25 02:59:42;;;;;;;73.97;33.45;;;;;;;2.14;100.00;103404.59;5054931;28;20119;-45
2022/01/25 03:02:08;;;;;;;74.82;33.78;;;;;;;2.13;100.00;103405.47;5053696;28;20037;-47
2022/01/25 03:04:33;;;;;;;81.93;35.63;;;;;;;2.12;100.00;103401.13;5054147;28;20598;-44
2022/01/25 03:06:59;;;;;;;76.55;35.35;;;;;;;2.13;100.00;103388.81;5054974;28;20028;-43
2022/01/25 03:09:24;;;;;;;73.57;34.03;;;;;;;2.09;100.00;103388.03;5054164;28;20032;-47
2022/01/25 03:11:52;;;;;;;81.07;35.50;;;;;;;2.13;100.00;103389.66;5055396;28;20040;-48
2022/01/25 03:14:20;;;;;;;79.60;35.30;;;;;;;2.10;100.00;103387.13;5055237;28;20020;-45
2022/01/25 03:17:03;;;;;;;73.40;33.63;;;;;;;2.13;100.00;103386.19;5055707;28;20605;-44
2022/01/25 03:21:55;;;;;;;85.35;36.10;;;;;;;2.15;100.00;103379.94;5055111;28;20044;-45
2022/01/25 03:24:21;;;;;;;77.68;35.65;;;;;;;2.17;100.00;103388.69;5053577;28;20116;-44
2022/01/25 03:26:46;;;;;;;75.30;34.22;;;;;;;2.18;100.00;103386.91;5054021;28;20163;-43
2022/01/25 03:29:12;;;;;;;76.97;34.60;;;;;;;2.11;100.00;103373.03;5054641;28;20036;-43
2022/01/25 03:31:37;;;;;;;73.18;32.75;;;;;;;2.14;100.00;103379.97;5036787;28;20017;-46
2022/01/25 03:34:02;;;;;;;75.72;35.03;;;;;;;2.14;100.00;103369.44;5055281;28;20062;-43
2022/01/25 03:36:28;;;;;;;78.72;33.53;;;;;;;2.14;100.00;103362.41;5054378;28;20017;-44
2022/01/25 03:38:54;;;;;;;79.40;36.53;;;;;;;2.16;100.00;103373.78;5054392;28;20062;-43
2022/01/25 03:41:23;;;;;;;80.90;36.00;;;;;;;2.16;100.00;103380.81;5053244;28;20028;-44
2022/01/25 03:43:53;;;;;;;80.05;35.20;;;;;;;2.15;100.00;103376.44;5054391;28;20032;-45
2022/01/25 03:46:30;;;;;;;79.47;35.70;;;;;;;2.18;100.00;103373.72;5054464;28;20222;-44
2022/01/25 03:51:39;;;;;;;83.22;36.47;;;;;;;2.19;100.00;103378.97;5053161;28;20055;-45
2022/01/25 03:54:05;;;;;;;83.35;36.78;;;;;;;2.18;100.00;103392.19;5035458;28;20407;-46
2022/01/25 03:56:31;;;;;;;79.07;35.90;;;;;;;2.16;100.00;103394.84;5053307;28;20423;-44
2022/01/25 03:58:56;;;;;;;81.30;34.63;;;;;;;2.18;100.00;103392.19;5054504;28;20511;-44
2022/01/25 04:01:21;;;;;;;85.43;36.47;;;;;;;2.18;100.00;103386.91;5054607;28;20576;-46
2022/01/25 04:03:58;;;;;;;84.80;35.70;;;;;;;2.16;100.00;103386.94;5054914;28;20032;-43
2022/01/25 04:06:25;;;;;;;81.45;34.70;;;;;;;2.16;100.00;103388.72;5052744;28;20031;-44
2022/01/25 04:08:50;;;;;;;80.72;36.28;;;;;;;2.18;100.00;103392.19;5054349;28;20024;-45
2022/01/25 04:11:16;;;;;;;85.35;36.25;;;;;;;2.19;100.00;103391.25;5052986;28;20071;-43
2022/01/25 04:13:41;;;;;;;81.03;34.63;;;;;;;2.21;100.00;103392.94;5055038;28;20321;-46
2022/01/25 04:16:14;;;;;;;84.93;36.60;;;;;;;2.22;100.00;103388.53;5054467;28;20028;-44
2022/01/25 04:21:44;;;;;;;89.75;35.70;;;;;;;2.23;100.00;103380.59;5053918;28;20064;-43
2022/01/25 04:26:56;;;;;;;88.72;37.58;;;;;;;2.26;100.00;103378.75;5054308;28;20256;-45
2022/01/25 04:29:23;;;;;;;90.50;38.40;;;;;;;2.23;100.00;103385.84;5054215;28;20016;-47
2022/01/25 04:31:48;;;;;;;92.75;36.92;;;;;;;2.21;100.00;103373.66;5056841;28;20493;-45
2022/01/25 04:36:57;;;;;;;94.45;39.13;;;;;;;2.24;100.00;103376.16;5062289;28;20039;-47
2022/01/25 04:53:14;;;;;;;90.78;37.53;;;;;;;2.26;100.00;103370.84;5060912;28;20039;-47
2022/01/25 04:56:28;;;;;;;83.22;35.55;;;;;;;2.29;100.00;103376.03;5059666;28;20031;-45
2022/01/25 04:58:49;;;;;;;81.32;35.30;;;;;;;2.28;100.00;103355.88;5053388;28;20055;-45
2022/01/25 05:01:16;;;;;;;85.40;36.65;;;;;;;2.28;100.00;103362.00;5059961;28;20046;-44
2022/01/25 05:03:55;;;;;;;87.47;36.42;;;;;;;2.23;100.00;103353.38;5067551;28;20032;-44
2022/01/25 05:06:21;;;;;;;83.13;36.78;;;;;;;2.26;100.00;103362.94;5064082;28;20028;-45
2022/01/25 05:08:51;;;;;;;91.13;36.83;;;;;;;2.25;100.00;103356.81;5068721;28;20016;-47
2022/01/25 05:11:32;;;;;;;85.75;36.78;;;;;;;2.24;100.00;103366.50;5045389;28;20049;-46
2022/01/25 05:16:29;;;;;;;83.18;35.45;;;;;;;2.28;100.00;103367.28;5067890;28;20115;-46
2022/01/25 05:19:10;;;;;;;89.57;37.78;;;;;;;2.29;100.00;103374.28;5067080;28;20528;-44
2022/01/25 05:24:20;;;;;;;89.30;37.25;;;;;;;2.29;100.00;103354.94;5061818;28;20586;-44
2022/01/25 05:26:45;;;;;;;91.85;38.50;;;;;;;2.29;100.00;103358.47;5065997;28;20029;-47
2022/01/25 05:29:11;;;;;;;94.55;38.13;;;;;;;2.26;100.00;103360.31;5065839;28;20467;-44
2022/01/25 05:31:37;;;;;;;93.60;38.08;;;;;;;2.26;100.00;103358.56;5064868;28;20045;-42
2022/01/25 05:34:02;;;;;;;90.25;36.10;;;;;;;2.28;100.00;103361.16;5067674;28;20592;-43
2022/01/25 05:36:27;;;;;;;93.75;38.13;;;;;;;2.30;100.00;103365.44;5058341;28;20032;-44
2022/01/25 05:38:56;;;;;;;92.97;37.67;;;;;;;2.32;100.00;103363.63;5065315;28;20107;-48
2022/01/25 05:41:22;;;;;;;93.32;36.92;;;;;;;2.31;100.00;103358.41;5072891;28;20428;-47
2022/01/25 05:46:35;;;;;;;95.10;38.40;;;;;;;2.33;100.00;103354.81;5076658;28;20027;-42
2022/01/25 05:49:00;;;;;;;94.43;37.75;;;;;;;2.32;100.00;103352.22;5076937;28;20275;-45
2022/01/25 05:51:25;;;;;;;90.82;37.15;;;;;;;2.32;100.00;103358.34;5072669;28;20157;-45
2022/01/25 05:53:51;;;;;;;96.72;38.53;;;;;;;2.31;100.00;103351.38;5064911;28;20020;-44
2022/01/25 05:56:16;;;;;;;104.13;39.22;;;;;;;2.33;100.00;103354.81;5044327;28;20185;-45
2022/01/25 05:58:42;;;;;;;100.88;40.20;;;;;;;2.35;100.00;103362.69;5062568;28;20024;-43
2022/01/25 06:01:07;;;;;;;103.00;40.60;;;;;;;2.35;100.00;103357.41;5056233;28;20086;-45
2022/01/25 06:03:32;;;;;;;95.72;39.50;;;;;;;2.32;100.00;103363.63;5055393;28;20028;-43
2022/01/25 06:05:57;;;;;;;104.00;40.45;;;;;;;2.33;100.00;103361.88;5056112;28;20025;-48
2022/01/25 06:08:23;;;;;;;100.43;39.88;;;;;;;2.32;100.00;103357.50;5056142;28;20767;-44
2022/01/25 06:10:48;;;;;;;99.72;40.80;;;;;;;2.34;100.00;103364.47;5055373;28;20093;-45
2022/01/25 06:13:13;;;;;;;99.70;40.83;;;;;;;2.33;100.00;103368.00;5056757;28;20025;-46
2022/01/25 06:15:38;;;;;;;102.25;40.30;;;;;;;2.34;100.00;103360.94;5055005;28;20027;-42
2022/01/25 06:18:04;;;;;;;104.13;39.95;;;;;;;2.35;100.00;103360.06;5037723;28;20029;-42
2022/01/25 06:20:29;;;;;;;108.50;42.17;;;;;;;2.35;100.00;103357.41;5054217;28;20125;-45
2022/01/25 06:22:55;;;;;;;101.55;40.22;;;;;;;2.36;100.00;103351.22;5037715;28;20063;-44
2022/01/25 06:25:21;;;;;;;110.95;41.92;;;;;;;2.37;100.00;103352.94;5054799;28;20032;-44
2022/01/25 06:27:46;;;;;;;110.53;41.85;;;;;;;2.38;100.00;103354.69;5056661;28;20081;-46
2022/01/25 06:30:14;;;;;;;104.43;41.35;;;;;;;2.36;100.00;103356.47;5056510;28;20405;-44
2022/01/25 06:32:40;;;;;;;108.40;42.28;;;;;;;2.38;100.00;103359.97;5055697;28;20059;-45
2022/01/25 06:35:06;;;;;;;103.65;41.55;;;;;;;2.39;100.00;103356.41;5060934;28;20123;-46
2022/01/25 06:37:32;;;;;;;101.78;40.95;;;;;;;2.39;100.00;103354.66;5064184;28;20107;-47
2022/01/25 06:39:58;;;;;;;108.50;41.45;;;;;;;2.39;100.00;103357.28;5062782;28;20032;-46
2022/01/25 06:42:27;;;;;;;113.05;43.05;;;;;;;2.41;100.00;103359.84;5075096;28;20100;-47
2022/01/25 06:44:55;;;;;;;106.00;40.80;;;;;;;2.41;100.00;103359.84;5076555;28;20430;-46
2022/01/25 06:47:20;;;;;;;96.57;40.55;;;;;;;2.40;100.00;103363.41;5058023;28;20049;-43
2022/01/25 06:49:46;;;;;;;104.82;40.42;;;;;;;2.42;100.00;103361.59;5068266;28;20055;-46
2022/01/25 06:52:11;;;;;;;104.10;40.35;;;;;;;2.42;100.00;103361.59;5035763;28;20265;-44
2022/01/25 06:54:36;;;;;;;101.78;40.92;;;;;;;2.42;100.00;103366.88;5034331;28;20028;-45
2022/01/25 06:57:02;;;;;;;103.72;40.38;;;;;;;2.41;100.00;103359.84;5060059;28;20028;-43
2022/01/25 06:59:27;;;;;;;111.63;41.67;;;;;;;2.41;100.00;103368.66;5074574;28;20031;-45
2022/01/25 07:01:53;;;;;;;109.78;43.47;;;;;;;2.41;100.00;103366.00;5076775;28;20376;-45
2022/01/25 07:04:18;;;;;;;117.65;44.35;;;;;;;2.43;100.00;103366.81;5075529;28;20035;-44
2022/01/25 07:06:44;;;;;;;119.68;45.75;;;;;;;2.42;100.00;103370.34;5057059;28;20039;-44
2022/01/25 07:09:09;;;;;;;114.43;44.40;;;;;;;2.44;100.00;103378.22;5046657;28;20360;-48
2022/01/25 07:11:34;;;;;;;121.82;45.92;;;;;;;2.45;100.00;103372.06;5054227;28;20072;-43
2022/01/25 07:14:00;;;;;;;132.70;46.53;;;;;;;2.46;100.00;103371.16;5057861;28;20115;-46
2022/01/25 07:16:25;;;;;;;128.77;46.50;;;;;;;2.49;100.00;103384.22;5042994;28;20434;-47
2022/01/25 07:18:51;;;;;;;120.82;45.47;;;;;;;2.48;100.00;103379.88;5035317;28;20040;-45
2022/01/25 07:21:16;;;;;;;125.03;46.28;;;;;;;2.48;100.00;103377.25;5049018;28;20024;-44
2022/01/25 07:23:41;;;;;;;124.13;46.45;;;;;;;2.48;100.00;103379.88;5041274;28;20032;-46
2022/01/25 07:26:07;;;;;;;113.25;44.33;;;;;;;2.49;100.00;103375.47;5043783;28;20024;-43
2022/01/25 07:28:33;;;;;;;135.23;46.33;;;;;;;2.51;100.00;103381.53;5043299;28;20698;-46
2022/01/25 07:30:59;;;;;;;118.88;44.22;;;;;;;2.52;100.00;103384.13;5044420;28;20031;-45
2022/01/25 07:33:24;;;;;;;122.15;45.17;;;;;;;2.53;100.00;103383.25;5044360;28;20025;-46
2022/01/25 07:35:49;;;;;;;117.00;44.63;;;;;;;2.53;100.00;103385.00;5045024;28;20154;-44
2022/01/25 07:38:15;;;;;;;118.63;45.00;;;;;;;2.50;100.00;103377.19;5047642;28;20036;-43
2022/01/25 07:40:41;;;;;;;122.57;43.75;;;;;;;2.53;100.00;103388.53;5044710;28;20411;-45
2022/01/25 07:43:07;;;;;;;117.43;44.58;;;;;;;2.53;100.00;103382.34;5050161;28;20056;-45
2022/01/25 07:45:35;;;;;;;122.90;44.47;;;;;;;2.55;100.00;103380.56;5053444;28;20554;-46
2022/01/25 07:48:03;;;;;;;119.25;43.47;;;;;;;2.55;100.00;103388.47;5054228;28;20036;-45
2022/01/25 07:50:28;;;;;;;120.35;44.67;;;;;;;2.56;100.00;103388.44;5059717;28;20239;-47
2022/01/25 07:52:54;;;;;;;119.25;44.33;;;;;;;2.56;100.00;103385.78;5047508;28;20331;-44
2022/01/25 07:55:19;;;;;;;123.88;45.20;;;;;;;2.57;100.00;103384.88;5037494;28;20074;-44
2022/01/25 07:57:45;;;;;;;129.43;46.63;;;;;;;2.59;100.00;103379.53;5054751;28;20051;-45
2022/01/25 08:00:11;;;;;;;123.38;46.80;;;;;;;2.60;100.00;103383.94;5055246;28;20040;-46
2022/01/25 08:02:37;;;;;;;128.75;47.50;;;;;;;2.62;100.00;103387.38;5055249;28;20036;-45
2022/01/25 08:05:03;;;;;;;131.10;48.05;;;;;;;2.63;100.00;103382.94;5054978;28;20024;-45
2022/01/25 08:07:28;;;;;;;127.88;47.15;;;;;;;2.65;100.00;103376.72;5067039;28;20031;-45
2022/01/25 08:09:53;;;;;;;134.13;48.17;;;;;;;2.66;100.00;103382.88;5063754;28;20051;-44
2022/01/25 08:12:19;;;;;;;130.52;48.17;;;;;;;2.68;100.00;103381.03;5053115;28;20062;-44
2022/01/25 08:14:44;;;;;;;138.63;51.00;;;;;;;2.69;100.00;103388.91;5053828;28;20040;-44
2022/01/25 08:17:10;;;;;;;133.85;48.95;;;;;;;2.71;100.00;103383.59;5053423;28;20090;-43
2022/01/25 08:19:35;;;;;;;139.20;49.17;;;;;;;2.72;100.00;103395.88;5033949;28;20228;-44
2022/01/25 08:22:00;;;;;;;125.50;46.50;;;;;;;2.73;100.00;103394.94;5034366;28;20451;-47
2022/01/25 08:24:25;;;;;;;131.57;46.88;;;;;;;2.69;100.00;103388.91;5042120;28;20032;-46
2022/01/25 08:26:51;;;;;;;133.38;48.03;;;;;;;2.74;100.00;103392.28;5050921;28;20434;-45
2022/01/25 08:29:17;;;;;;;130.20;48.47;;;;;;;2.74;100.00;103397.53;5032581;28;20033;-46
2022/01/25 08:31:42;;;;;;;137.30;48.42;;;;;;;2.77;100.00;103391.31;5053867;28;20036;-46
2022/01/25 08:34:08;;;;;;;131.18;47.65;;;;;;;2.78;100.00;103399.19;5053744;28;20100;-43
2022/01/25 08:36:34;;;;;;;147.52;50.25;;;;;;;2.80;100.00;103392.09;5053551;28;20526;-46
2022/01/25 08:39:00;;;;;;;135.18;49.60;;;;;;;2.80;100.00;103394.72;5054380;28;20025;-44
2022/01/25 08:41:26;;;;;;;144.85;49.22;;;;;;;2.84;100.00;103392.00;5056525;28;20020;-44
2022/01/25 08:43:51;;;;;;;138.02;50.33;;;;;;;2.85;100.00;103391.06;5056215;28;20110;-46
2022/01/25 08:46:18;;;;;;;137.15;51.15;;;;;;;2.86;100.00;103391.03;5056616;28;20046;-45
2022/01/25 08:48:45;;;;;;;145.27;50.28;;;;;;;2.91;100.00;103396.16;5054353;28;20520;-45
2022/01/25 08:51:11;;;;;;;143.40;50.67;;;;;;;2.94;100.00;103396.09;5057323;28;20028;-47
2022/01/25 08:53:36;;;;;;;143.40;51.83;;;;;;;2.95;100.00;103392.50;5055537;28;20357;-43
2022/01/25 08:56:02;;;;;;;150.07;51.30;;;;;;;2.96;100.00;103389.81;5055950;28;20343;-42
2022/01/25 08:58:27;;;;;;;138.30;50.58;;;;;;;2.97;100.00;103399.47;5057292;28;20033;-46
2022/01/25 09:00:53;;;;;;;143.00;50.63;;;;;;;2.99;100.00;103402.06;5055970;28;20032;-44
2022/01/25 09:03:18;;;;;;;134.35;50.72;;;;;;;3.03;100.00;103401.06;5053587;28;20016;-47
2022/01/25 09:05:43;;;;;;;151.30;52.83;;;;;;;3.05;100.00;103408.94;5057239;28;20495;-43
2022/01/25 09:08:10;;;;;;;150.55;53.28;;;;;;;3.07;100.00;103409.72;5039190;28;20692;-45
2022/01/25 09:10:35;;;;;;;138.65;52.22;;;;;;;3.05;100.00;103407.16;5034451;28;20159;-43
2022/01/25 09:13:01;;;;;;;143.27;52.28;;;;;;;3.07;100.00;103413.25;5039992;28;20115;-46
2022/01/25 09:15:27;;;;;;;143.77;52.40;;;;;;;3.08;100.00;103408.84;5056218;28;20036;-45
2022/01/25 09:17:52;;;;;;;147.48;52.47;;;;;;;3.10;100.00;103412.28;5056974;28;20017;-44
2022/01/25 09:20:17;;;;;;;141.88;51.55;;;;;;;3.11;100.00;103414.03;5055843;28;20041;-46
2022/01/25 09:22:43;;;;;;;146.75;53.25;;;;;;;3.12;100.00;103405.16;5056882;28;20570;-46
2022/01/25 09:25:09;;;;;;;139.20;51.90;;;;;;;3.14;100.00;103417.44;5055618;28;20412;-44
2022/01/25 09:27:35;;;;;;;149.00;51.65;;;;;;;3.17;100.00;103416.44;5056017;28;20031;-45
2022/01/25 09:30:01;;;;;;;142.45;52.95;;;;;;;3.18;100.00;103419.03;5056878;28;20500;-46
2022/01/25 09:32:26;;;;;;;138.70;51.20;;;;;;;3.18;100.00;103421.69;5055859;28;20035;-44
2022/01/25 09:34:51;;;;;;;140.10;50.67;;;;;;;3.21;100.00;103427.78;5057035;28;20700;-42
2022/01/25 09:37:17;;;;;;;148.48;53.03;;;;;;;3.20;100.00;103421.63;5056567;28;20025;-43
2022/01/25 09:39:43;;;;;;;145.50;52.47;;;;;;;3.25;100.00;103414.44;5038118;28;20441;-47
2022/01/25 09:42:10;;;;;;;154.90;53.70;;;;;;;3.29;100.00;103420.47;5056641;28;20275;-44
2022/01/25 09:44:37;;;;;;;152.13;52.97;;;;;;;3.32;100.00;103423.03;5056393;28;20101;-42
2022/01/25 09:47:03;;;;;;;142.68;52.15;;;;;;;3.33;100.00;103419.47;5056307;28;20311;-44
2022/01/25 09:49:30;;;;;;;140.38;52.28;;;;;;;3.37;100.00;103418.44;5056018;28;20097;-45
2022/01/25 09:51:55;;;;;;;143.38;51.67;;;;;;;3.41;100.00;103424.50;5056911;28;20103;-44
2022/01/25 09:54:21;;;;;;;147.60;51.55;;;;;;;3.42;100.00;103427.09;5054092;28;20051;-42
2022/01/25 09:56:46;;;;;;;136.25;51.38;;;;;;;3.44;100.00;103434.97;5055806;28;20361;-43
2022/01/25 09:59:11;;;;;;;139.82;51.38;;;;;;;3.44;100.00;103432.31;5055108;28;20135;-42
2022/01/25 10:01:37;;;;;;;142.15;53.53;;;;;;;3.45;100.00;103434.91;5053635;28;20098;-43
2022/01/25 10:04:05;;;;;;;140.32;52.22;;;;;;;3.50;100.00;103442.69;5056002;28;20065;-45
2022/01/25 10:06:33;;;;;;;145.73;53.88;;;;;;;3.49;100.00;103438.31;5055747;28;20397;-47
2022/01/25 10:08:58;;;;;;;140.98;51.15;;;;;;;3.53;100.00;103438.16;5054846;28;20036;-47
2022/01/25 10:11:25;;;;;;;151.98;54.53;;;;;;;3.58;100.00;103439.78;5054740;28;20020;-48
2022/01/25 10:13:55;;;;;;;148.63;53.72;;;;;;;3.60;100.00;103441.47;5055556;28;20124;-44
2022/01/25 10:16:30;;;;;;;148.98;53.72;;;;;;;3.64;100.00;103443.09;5055457;28;20468;-44
2022/01/25 10:19:06;;;;;;;139.77;52.92;;;;;;;3.66;100.00;103432.47;5055328;28;20020;-46
2022/01/25 10:21:34;;;;;;;139.07;51.83;;;;;;;3.68;100.00;103431.50;5055449;28;20024;-44
2022/01/25 10:24:07;;;;;;;138.50;51.85;;;;;;;3.70;100.00;103431.44;5053300;28;20024;-45
2022/01/25 10:26:39;;;;;;;138.77;53.25;;;;;;;3.71;100.00;103447.25;5054090;28;20124;-47
2022/01/25 10:29:05;;;;;;;141.13;51.53;;;;;;;3.77;100.00;103455.88;5054796;28;20496;-45
2022/01/25 10:31:39;;;;;;;137.45;53.33;;;;;;;3.77;100.00;103443.53;5054358;28;20025;-45
2022/01/25 10:34:10;;;;;;;135.30;51.35;;;;;;;3.73;100.00;103439.25;5054516;28;20509;-43
2022/01/25 10:36:45;;;;;;;136.55;51.78;;;;;;;3.74;100.00;103436.56;5055245;28;20032;-46
2022/01/25 10:39:12;;;;;;;137.52;52.03;;;;;;;3.81;100.00;103439.88;5054504;28;20028;-43
2022/01/25 10:41:38;;;;;;;137.27;53.67;;;;;;;3.83;100.00;103438.03;5054155;28;20541;-46
2022/01/25 10:44:06;;;;;;;140.48;52.47;;;;;;;3.87;100.00;103441.41;5055286;28;20158;-44
2022/01/25 10:46:32;;;;;;;132.60;50.92;;;;;;;3.88;100.00;103429.94;5054259;28;20027;-47
2022/01/25 10:49:04;;;;;;;134.90;51.33;;;;;;;3.91;100.00;103429.84;5055310;28;20173;-44
2022/01/25 10:51:35;;;;;;;136.52;52.13;;;;;;;3.90;100.00;103431.63;5054690;28;20044;-46
2022/01/25 10:54:05;;;;;;;133.38;51.80;;;;;;;3.92;100.00;103429.78;5053905;28;20028;-44
2022/01/25 10:56:35;;;;;;;139.10;52.10;;;;;;;3.95;100.00;103431.44;5053798;28;20036;-45
2022/01/25 10:59:03;;;;;;;133.30;52.03;;;;;;;4.01;100.00;103431.25;5055186;28;20039;-48
2022/01/25 11:01:30;;;;;;;141.32;52.15;;;;;;;4.02;100.00;103432.09;5054092;28;20262;-46
2022/01/25 11:04:05;;;;;;;133.85;51.40;;;;;;;4.06;100.00;103439.03;5054559;28;20032;-44
2022/01/25 11:06:30;;;;;;;138.93;52.50;;;;;;;4.05;100.00;103432.00;5054310;28;20039;-45
2022/01/25 11:09:00;;;;;;;140.85;52.80;;;;;;;4.04;100.00;103432.91;5052692;28;20028;-48
2022/01/25 11:11:29;;;;;;;144.25;53.17;;;;;;;4.04;100.00;103448.75;5053660;28;20039;-46
2022/01/25 11:13:56;;;;;;;136.07;51.70;;;;;;;4.04;100.00;103448.75;5054836;28;20060;-43
2022/01/25 11:16:22;;;;;;;137.75;51.78;;;;;;;4.04;100.00;103444.38;5054214;28;20532;-45
2022/01/25 11:18:47;;;;;;;135.90;51.35;;;;;;;4.01;100.00;103444.47;5054885;28;20207;-47
2022/01/25 11:21:13;;;;;;;139.05;51.63;;;;;;;4.01;100.00;103440.97;5054368;28;20384;-43
2022/01/25 11:23:40;;;;;;;132.35;50.90;;;;;;;4.04;100.00;103446.13;5034751;28;20017;-44
2022/01/25 11:26:09;;;;;;;139.80;53.47;;;;;;;4.05;100.00;103442.56;5053266;28;20028;-43
2022/01/25 11:28:36;;;;;;;136.25;51.75;;;;;;;4.06;100.00;103445.16;5049704;28;20889;-45
2022/01/25 11:31:07;;;;;;;128.75;50.35;;;;;;;4.07;100.00;103443.38;5034809;28;20439;-48
2022/01/25 11:33:33;;;;;;;123.63;49.50;;;;;;;4.10;100.00;103438.84;5051639;28;20013;-47
2022/01/25 11:35:59;;;;;;;130.60;52.38;;;;;;;4.06;100.00;103431.94;5054069;28;20365;-47
2022/01/25 11:38:33;;;;;;;131.85;52.08;;;;;;;4.07;100.00;103438.97;5053488;28;20184;-43
2022/01/25 11:40:59;;;;;;;128.95;50.58;;;;;;;4.05;100.00;103438.13;5054080;28;20094;-47
2022/01/25 11:43:24;;;;;;;132.10;49.83;;;;;;;4.02;100.00;103443.56;5053677;28;20460;-45
2022/01/25 11:45:50;;;;;;;129.65;51.63;;;;;;;4.02;100.00;103435.63;5054420;28;20251;-46
2022/01/25 11:48:23;;;;;;;125.70;49.70;;;;;;;4.04;100.00;103436.44;5053442;28;20032;-46
2022/01/25 11:50:49;;;;;;;127.47;50.15;;;;;;;3.98;100.00;103428.69;5054593;28;20060;-43
2022/01/25 11:53:17;;;;;;;129.02;50.47;;;;;;;4.04;100.00;103432.91;5053112;28;20024;-46
2022/01/25 11:55:51;;;;;;;129.73;48.95;;;;;;;4.03;100.00;103433.84;5053547;28;20455;-47
2022/01/25 11:58:37;;;;;;;125.38;49.15;;;;;;;4.04;100.00;103438.19;5052496;28;20024;-44
2022/01/25 12:01:24;;;;;;;135.48;48.65;;;;;;;4.11;100.00;103431.78;5051148;28;20036;-43
2022/01/25 12:03:56;;;;;;;130.30;49.35;;;;;;;4.17;100.00;103435.97;5054869;28;20025;-45
2022/01/25 12:06:37;;;;;;;134.60;51.22;;;;;;;4.18;100.00;103425.34;5054691;28;20025;-47
2022/01/25 12:09:18;;;;;;;129.70;49.13;;;;;;;4.22;100.00;103420.81;5051809;28;20024;-42
2022/01/25 12:11:51;;;;;;;131.80;49.95;;;;;;;4.22;100.00;103419.00;5053136;28;20426;-45
2022/01/25 12:14:50;;;;;;;130.52;48.50;;;;;;;4.20;100.00;103418.22;5057225;28;20078;-46
2022/01/25 12:17:19;;;;;;;125.75;49.42;;;;;;;4.21;100.00;103419.06;5057276;28;20551;-44
2022/01/25 12:19:50;;;;;;;123.47;47.40;;;;;;;4.23;100.00;103417.25;5038209;28;20458;-45
2022/01/25 12:22:28;;;;;;;122.43;47.63;;;;;;;4.23;100.00;103410.19;5054833;28;20452;-43
2022/01/25 12:25:09;;;;;;;122.90;49.65;;;;;;;4.23;100.00;103418.09;5053814;28;20063;-45
2022/01/25 12:27:59;;;;;;;122.00;47.70;;;;;;;4.23;100.00;103412.81;5056269;28;20827;-46
2022/01/25 12:30:39;;;;;;;128.88;47.47;;;;;;;4.26;100.00;103406.53;5056891;28;20060;-46
2022/01/25 12:33:14;;;;;;;124.88;47.13;;;;;;;4.27;100.00;103405.63;5057219;28;20068;-46
2022/01/25 12:35:49;;;;;;;123.68;48.97;;;;;;;4.25;100.00;103403.03;5057536;28;20024;-45